sensor_id;sensor_type;location;lat;lon;timestamp;P1;durP1;ratioP1;P2;durP2;ratioP2
41687;SDS011;27371;42.686;23.362;2022-10-28T00:06:31;16.27;;;8.85;;
41687;SDS011;27371;42.686;23.362;2022-10-28T00:08:57;16.63;;;9.00;;
41687;SDS011;27371;42.686;23.362;2022-10-28T00:11:25;17.50;;;10.27;;
41687;SDS011;27371;42.686;23.362;2022-10-28T00:13:53;16.40;;;8.57;;
41687;SDS011;27371;42.686;23.362;2022-10-28T00:16:21;26.10;;;11.35;;
41687;SDS011;27371;42.686;23.362;2022-10-28T00:18:50;22.05;;;10.30;;
41687;SDS011;27371;42.686;23.362;2022-10-28T00:21:18;18.65;;;10.98;;
41687;SDS011;27371;42.686;23.362;2022-10-28T00:23:46;16.60;;;8.77;;
41687;SDS011;27371;42.686;23.362;2022-10-28T00:26:22;16.77;;;9.82;;
41687;SDS011;27371;42.686;23.362;2022-10-28T00:28:53;18.27;;;9.70;;
41687;SDS011;27371;42.686;23.362;2022-10-28T00:31:24;20.10;;;9.75;;
41687;SDS011;27371;42.686;23.362;2022-10-28T00:33:51;24.98;;;9.70;;
41687;SDS011;27371;42.686;23.362;2022-10-28T00:36:21;19.27;;;8.75;;
41687;SDS011;27371;42.686;23.362;2022-10-28T00:38:52;15.52;;;9.35;;
41687;SDS011;27371;42.686;23.362;2022-10-28T00:41:20;16.70;;;9.45;;
41687;SDS011;27371;42.686;23.362;2022-10-28T00:43:48;14.23;;;9.05;;
41687;SDS011;27371;42.686;23.362;2022-10-28T00:46:37;14.75;;;7.85;;
41687;SDS011;27371;42.686;23.362;2022-10-28T00:49:16;13.05;;;8.05;;
41687;SDS011;27371;42.686;23.362;2022-10-28T00:52:20;15.75;;;8.25;;
41687;SDS011;27371;42.686;23.362;2022-10-28T00:55:05;17.17;;;7.90;;
41687;SDS011;27371;42.686;23.362;2022-10-28T00:57:33;15.40;;;7.45;;
41687;SDS011;27371;42.686;23.362;2022-10-28T01:00:02;19.75;;;8.40;;
41687;SDS011;27371;42.686;23.362;2022-10-28T01:02:30;13.40;;;7.50;;
41687;SDS011;27371;42.686;23.362;2022-10-28T01:04:58;13.80;;;7.65;;
41687;SDS011;27371;42.686;23.362;2022-10-28T01:07:25;17.25;;;8.52;;
41687;SDS011;27371;42.686;23.362;2022-10-28T01:10:06;14.40;;;7.93;;
41687;SDS011;27371;42.686;23.362;2022-10-28T01:12:56;16.17;;;8.15;;
41687;SDS011;27371;42.686;23.362;2022-10-28T01:18:16;12.50;;;7.32;;
41687;SDS011;27371;42.686;23.362;2022-10-28T01:26:29;10.50;;;4.57;;
41687;SDS011;27371;42.686;23.362;2022-10-28T01:35:28;14.68;;;7.78;;
41687;SDS011;27371;42.686;23.362;2022-10-28T01:46:37;8.10;;;5.03;;
41687;SDS011;27371;42.686;23.362;2022-10-28T01:49:22;11.43;;;4.70;;
41687;SDS011;27371;42.686;23.362;2022-10-28T01:51:56;10.10;;;4.15;;
41687;SDS011;27371;42.686;23.362;2022-10-28T01:54:26;11.82;;;5.60;;
41687;SDS011;27371;42.686;23.362;2022-10-28T01:56:55;8.85;;;5.68;;
41687;SDS011;27371;42.686;23.362;2022-10-28T01:59:23;12.55;;;6.15;;
41687;SDS011;27371;42.686;23.362;2022-10-28T02:01:52;13.13;;;7.90;;
41687;SDS011;27371;42.686;23.362;2022-10-28T02:04:18;16.42;;;8.80;;
41687;SDS011;27371;42.686;23.362;2022-10-28T02:06:43;15.35;;;7.78;;
41687;SDS011;27371;42.686;23.362;2022-10-28T02:09:31;12.75;;;6.72;;
41687;SDS011;27371;42.686;23.362;2022-10-28T02:20:28;10.82;;;6.00;;
41687;SDS011;27371;42.686;23.362;2022-10-28T02:23:06;11.93;;;6.32;;
41687;SDS011;27371;42.686;23.362;2022-10-28T02:26:00;12.15;;;6.10;;
41687;SDS011;27371;42.686;23.362;2022-10-28T02:31:17;17.95;;;6.32;;
41687;SDS011;27371;42.686;23.362;2022-10-28T02:33:50;9.38;;;5.65;;
41687;SDS011;27371;42.686;23.362;2022-10-28T02:36:21;9.63;;;5.78;;
41687;SDS011;27371;42.686;23.362;2022-10-28T02:38:49;12.38;;;4.38;;
41687;SDS011;27371;42.686;23.362;2022-10-28T02:43:54;13.00;;;6.10;;
41687;SDS011;27371;42.686;23.362;2022-10-28T02:46:24;15.75;;;7.40;;
41687;SDS011;27371;42.686;23.362;2022-10-28T02:48:54;12.27;;;6.53;;
41687;SDS011;27371;42.686;23.362;2022-10-28T02:51:25;11.20;;;6.00;;
41687;SDS011;27371;42.686;23.362;2022-10-28T02:54:01;10.98;;;4.90;;
41687;SDS011;27371;42.686;23.362;2022-10-28T02:56:33;10.45;;;5.00;;
41687;SDS011;27371;42.686;23.362;2022-10-28T02:59:07;10.00;;;4.72;;
41687;SDS011;27371;42.686;23.362;2022-10-28T03:01:33;6.35;;;3.97;;
41687;SDS011;27371;42.686;23.362;2022-10-28T03:03:59;13.10;;;4.85;;
41687;SDS011;27371;42.686;23.362;2022-10-28T03:06:24;7.45;;;3.95;;
41687;SDS011;27371;42.686;23.362;2022-10-28T03:08:50;5.38;;;3.90;;
41687;SDS011;27371;42.686;23.362;2022-10-28T03:14:33;7.82;;;4.13;;
41687;SDS011;27371;42.686;23.362;2022-10-28T03:16:59;10.02;;;3.75;;
41687;SDS011;27371;42.686;23.362;2022-10-28T03:22:33;8.40;;;3.83;;
41687;SDS011;27371;42.686;23.362;2022-10-28T03:24:59;6.32;;;4.03;;
41687;SDS011;27371;42.686;23.362;2022-10-28T03:27:24;8.73;;;4.25;;
41687;SDS011;27371;42.686;23.362;2022-10-28T03:29:50;8.80;;;4.93;;
41687;SDS011;27371;42.686;23.362;2022-10-28T03:32:15;7.75;;;4.38;;
41687;SDS011;27371;42.686;23.362;2022-10-28T03:34:41;8.75;;;4.38;;
41687;SDS011;27371;42.686;23.362;2022-10-28T03:37:06;10.95;;;4.65;;
41687;SDS011;27371;42.686;23.362;2022-10-28T03:39:32;8.77;;;4.70;;
41687;SDS011;27371;42.686;23.362;2022-10-28T03:51:30;10.05;;;4.18;;
41687;SDS011;27371;42.686;23.362;2022-10-28T03:54:08;5.43;;;3.63;;
41687;SDS011;27371;42.686;23.362;2022-10-28T03:56:34;9.23;;;4.15;;
41687;SDS011;27371;42.686;23.362;2022-10-28T03:59:09;8.10;;;3.53;;
41687;SDS011;27371;42.686;23.362;2022-10-28T04:01:36;10.25;;;4.05;;
41687;SDS011;27371;42.686;23.362;2022-10-28T04:04:02;8.85;;;3.97;;
41687;SDS011;27371;42.686;23.362;2022-10-28T04:09:35;7.50;;;4.07;;
41687;SDS011;27371;42.686;23.362;2022-10-28T04:12:01;11.55;;;3.75;;
41687;SDS011;27371;42.686;23.362;2022-10-28T04:14:26;6.47;;;4.10;;
41687;SDS011;27371;42.686;23.362;2022-10-28T04:16:52;10.43;;;4.30;;
41687;SDS011;27371;42.686;23.362;2022-10-28T04:19:17;8.50;;;4.50;;
41687;SDS011;27371;42.686;23.362;2022-10-28T04:21:42;7.88;;;4.35;;
41687;SDS011;27371;42.686;23.362;2022-10-28T04:24:08;12.73;;;6.97;;
41687;SDS011;27371;42.686;23.362;2022-10-28T04:26:33;12.25;;;7.40;;
41687;SDS011;27371;42.686;23.362;2022-10-28T04:28:59;17.58;;;8.80;;
41687;SDS011;27371;42.686;23.362;2022-10-28T04:31:24;20.95;;;7.07;;
41687;SDS011;27371;42.686;23.362;2022-10-28T04:33:50;8.73;;;5.80;;
41687;SDS011;27371;42.686;23.362;2022-10-28T04:36:15;10.77;;;6.03;;
41687;SDS011;27371;42.686;23.362;2022-10-28T04:38:41;16.58;;;6.15;;
41687;SDS011;27371;42.686;23.362;2022-10-28T04:41:07;14.00;;;7.50;;
41687;SDS011;27371;42.686;23.362;2022-10-28T04:43:37;18.50;;;8.02;;
41687;SDS011;27371;42.686;23.362;2022-10-28T04:46:03;12.80;;;7.07;;
41687;SDS011;27371;42.686;23.362;2022-10-28T04:48:30;12.95;;;7.03;;
41687;SDS011;27371;42.686;23.362;2022-10-28T04:50:56;14.55;;;7.32;;
41687;SDS011;27371;42.686;23.362;2022-10-28T04:53:22;16.50;;;7.07;;
41687;SDS011;27371;42.686;23.362;2022-10-28T04:55:47;14.40;;;7.75;;
41687;SDS011;27371;42.686;23.362;2022-10-28T04:58:12;18.15;;;8.13;;
41687;SDS011;27371;42.686;23.362;2022-10-28T05:00:38;16.45;;;7.43;;
41687;SDS011;27371;42.686;23.362;2022-10-28T05:03:03;19.98;;;8.73;;
41687;SDS011;27371;42.686;23.362;2022-10-28T05:05:29;16.23;;;8.02;;
41687;SDS011;27371;42.686;23.362;2022-10-28T05:07:55;21.60;;;8.07;;
41687;SDS011;27371;42.686;23.362;2022-10-28T05:10:20;18.17;;;8.48;;
41687;SDS011;27371;42.686;23.362;2022-10-28T05:12:45;20.42;;;8.77;;
41687;SDS011;27371;42.686;23.362;2022-10-28T05:15:11;18.23;;;8.35;;
41687;SDS011;27371;42.686;23.362;2022-10-28T05:17:44;19.08;;;8.60;;
41687;SDS011;27371;42.686;23.362;2022-10-28T05:20:11;19.05;;;9.48;;
41687;SDS011;27371;42.686;23.362;2022-10-28T05:22:40;17.42;;;10.00;;
41687;SDS011;27371;42.686;23.362;2022-10-28T05:25:10;19.08;;;10.02;;
41687;SDS011;27371;42.686;23.362;2022-10-28T05:27:35;23.35;;;8.98;;
41687;SDS011;27371;42.686;23.362;2022-10-28T05:30:01;19.30;;;9.30;;
41687;SDS011;27371;42.686;23.362;2022-10-28T05:32:26;18.00;;;7.32;;
41687;SDS011;27371;42.686;23.362;2022-10-28T05:34:52;27.38;;;10.70;;
41687;SDS011;27371;42.686;23.362;2022-10-28T05:37:17;22.10;;;9.88;;
41687;SDS011;27371;42.686;23.362;2022-10-28T05:39:43;33.80;;;10.25;;
41687;SDS011;27371;42.686;23.362;2022-10-28T05:42:08;23.33;;;9.98;;
41687;SDS011;27371;42.686;23.362;2022-10-28T05:44:34;20.98;;;11.05;;
41687;SDS011;27371;42.686;23.362;2022-10-28T05:46:59;27.45;;;11.32;;
41687;SDS011;27371;42.686;23.362;2022-10-28T05:49:25;24.85;;;11.55;;
41687;SDS011;27371;42.686;23.362;2022-10-28T05:51:51;25.67;;;11.75;;
41687;SDS011;27371;42.686;23.362;2022-10-28T05:54:16;24.88;;;11.27;;
41687;SDS011;27371;42.686;23.362;2022-10-28T05:56:42;28.33;;;11.65;;
41687;SDS011;27371;42.686;23.362;2022-10-28T05:59:07;36.22;;;12.88;;
41687;SDS011;27371;42.686;23.362;2022-10-28T06:01:33;25.80;;;11.52;;
41687;SDS011;27371;42.686;23.362;2022-10-28T06:03:58;32.25;;;13.27;;
41687;SDS011;27371;42.686;23.362;2022-10-28T06:06:23;39.00;;;12.90;;
41687;SDS011;27371;42.686;23.362;2022-10-28T06:08:49;34.05;;;12.55;;
41687;SDS011;27371;42.686;23.362;2022-10-28T06:11:14;39.28;;;13.15;;
41687;SDS011;27371;42.686;23.362;2022-10-28T06:13:40;30.60;;;11.43;;
41687;SDS011;27371;42.686;23.362;2022-10-28T06:16:06;19.92;;;11.82;;
41687;SDS011;27371;42.686;23.362;2022-10-28T06:18:32;33.38;;;12.57;;
41687;SDS011;27371;42.686;23.362;2022-10-28T06:20:58;36.90;;;12.15;;
41687;SDS011;27371;42.686;23.362;2022-10-28T06:23:24;23.40;;;11.88;;
41687;SDS011;27371;42.686;23.362;2022-10-28T06:25:52;25.40;;;11.23;;
41687;SDS011;27371;42.686;23.362;2022-10-28T06:28:20;26.38;;;11.07;;
41687;SDS011;27371;42.686;23.362;2022-10-28T06:30:46;28.73;;;10.88;;
41687;SDS011;27371;42.686;23.362;2022-10-28T06:33:11;18.77;;;10.23;;
41687;SDS011;27371;42.686;23.362;2022-10-28T06:35:37;21.13;;;9.77;;
41687;SDS011;27371;42.686;23.362;2022-10-28T06:38:02;16.77;;;9.30;;
41687;SDS011;27371;42.686;23.362;2022-10-28T06:40:28;22.35;;;9.05;;
41687;SDS011;27371;42.686;23.362;2022-10-28T06:42:59;22.80;;;9.98;;
41687;SDS011;27371;42.686;23.362;2022-10-28T06:45:25;21.52;;;10.10;;
41687;SDS011;27371;42.686;23.362;2022-10-28T06:47:55;17.42;;;9.15;;
41687;SDS011;27371;42.686;23.362;2022-10-28T06:50:21;29.30;;;9.43;;
41687;SDS011;27371;42.686;23.362;2022-10-28T06:52:47;22.13;;;9.68;;
41687;SDS011;27371;42.686;23.362;2022-10-28T06:55:13;17.55;;;9.07;;
41687;SDS011;27371;42.686;23.362;2022-10-28T06:57:38;17.35;;;9.35;;
41687;SDS011;27371;42.686;23.362;2022-10-28T07:00:04;21.70;;;9.27;;
41687;SDS011;27371;42.686;23.362;2022-10-28T07:02:30;24.13;;;9.90;;
41687;SDS011;27371;42.686;23.362;2022-10-28T07:04:55;20.88;;;9.85;;
41687;SDS011;27371;42.686;23.362;2022-10-28T07:07:21;23.17;;;9.60;;
41687;SDS011;27371;42.686;23.362;2022-10-28T07:09:46;18.02;;;8.63;;
41687;SDS011;27371;42.686;23.362;2022-10-28T07:12:12;23.98;;;9.27;;
41687;SDS011;27371;42.686;23.362;2022-10-28T07:14:37;20.95;;;8.98;;
41687;SDS011;27371;42.686;23.362;2022-10-28T07:17:03;27.15;;;9.35;;
41687;SDS011;27371;42.686;23.362;2022-10-28T07:19:28;33.03;;;9.63;;
41687;SDS011;27371;42.686;23.362;2022-10-28T07:21:54;19.05;;;8.85;;
41687;SDS011;27371;42.686;23.362;2022-10-28T07:24:19;23.02;;;8.90;;
41687;SDS011;27371;42.686;23.362;2022-10-28T07:26:48;19.30;;;9.52;;
41687;SDS011;27371;42.686;23.362;2022-10-28T07:29:14;20.60;;;9.43;;
41687;SDS011;27371;42.686;23.362;2022-10-28T07:31:40;26.05;;;8.98;;
41687;SDS011;27371;42.686;23.362;2022-10-28T07:34:05;14.38;;;9.15;;
41687;SDS011;27371;42.686;23.362;2022-10-28T07:36:31;23.83;;;9.05;;
41687;SDS011;27371;42.686;23.362;2022-10-28T07:38:56;18.02;;;8.70;;
41687;SDS011;27371;42.686;23.362;2022-10-28T07:41:22;19.02;;;8.90;;
41687;SDS011;27371;42.686;23.362;2022-10-28T07:43:48;16.77;;;8.40;;
41687;SDS011;27371;42.686;23.362;2022-10-28T07:46:14;17.05;;;7.88;;
41687;SDS011;27371;42.686;23.362;2022-10-28T07:48:40;13.93;;;6.75;;
41687;SDS011;27371;42.686;23.362;2022-10-28T07:51:06;12.93;;;6.60;;
41687;SDS011;27371;42.686;23.362;2022-10-28T07:53:34;11.35;;;6.65;;
41687;SDS011;27371;42.686;23.362;2022-10-28T07:56:01;17.10;;;7.97;;
41687;SDS011;27371;42.686;23.362;2022-10-28T07:58:28;16.02;;;7.15;;
41687;SDS011;27371;42.686;23.362;2022-10-28T08:00:54;12.20;;;6.50;;
41687;SDS011;27371;42.686;23.362;2022-10-28T08:03:20;15.88;;;7.18;;
41687;SDS011;27371;42.686;23.362;2022-10-28T08:05:46;11.48;;;6.85;;
41687;SDS011;27371;42.686;23.362;2022-10-28T08:08:12;13.93;;;6.45;;
41687;SDS011;27371;42.686;23.362;2022-10-28T08:10:37;13.70;;;7.00;;
41687;SDS011;27371;42.686;23.362;2022-10-28T08:13:03;12.40;;;6.00;;
41687;SDS011;27371;42.686;23.362;2022-10-28T08:15:30;14.65;;;6.80;;
41687;SDS011;27371;42.686;23.362;2022-10-28T08:17:55;11.70;;;6.50;;
41687;SDS011;27371;42.686;23.362;2022-10-28T08:20:21;15.07;;;6.45;;
41687;SDS011;27371;42.686;23.362;2022-10-28T08:22:47;12.50;;;6.53;;
41687;SDS011;27371;42.686;23.362;2022-10-28T08:25:13;13.82;;;6.50;;
41687;SDS011;27371;42.686;23.362;2022-10-28T08:27:38;12.60;;;6.88;;
41687;SDS011;27371;42.686;23.362;2022-10-28T08:30:06;13.32;;;6.70;;
41687;SDS011;27371;42.686;23.362;2022-10-28T08:32:32;16.23;;;6.95;;
41687;SDS011;27371;42.686;23.362;2022-10-28T08:34:58;18.88;;;7.07;;
41687;SDS011;27371;42.686;23.362;2022-10-28T08:37:24;11.68;;;6.45;;
41687;SDS011;27371;42.686;23.362;2022-10-28T08:39:50;13.75;;;6.03;;
41687;SDS011;27371;42.686;23.362;2022-10-28T08:49:56;16.60;;;6.70;;
41687;SDS011;27371;42.686;23.362;2022-10-28T08:52:28;10.50;;;7.35;;
41687;SDS011;27371;42.686;23.362;2022-10-28T08:55:14;16.77;;;6.75;;
41687;SDS011;27371;42.686;23.362;2022-10-28T08:57:51;15.52;;;6.80;;
41687;SDS011;27371;42.686;23.362;2022-10-28T09:00:21;11.45;;;6.43;;
41687;SDS011;27371;42.686;23.362;2022-10-28T09:05:35;14.32;;;6.20;;
41687;SDS011;27371;42.686;23.362;2022-10-28T09:08:40;12.45;;;6.93;;
41687;SDS011;27371;42.686;23.362;2022-10-28T09:16:14;12.63;;;6.38;;
41687;SDS011;27371;42.686;23.362;2022-10-28T09:18:52;24.40;;;7.63;;
41687;SDS011;27371;42.686;23.362;2022-10-28T09:23:55;13.75;;;6.50;;
41687;SDS011;27371;42.686;23.362;2022-10-28T09:32:21;12.07;;;5.75;;
41687;SDS011;27371;42.686;23.362;2022-10-28T09:37:38;10.23;;;4.93;;
41687;SDS011;27371;42.686;23.362;2022-10-28T09:42:45;10.27;;;6.10;;
41687;SDS011;27371;42.686;23.362;2022-10-28T09:45:22;10.43;;;5.65;;
41687;SDS011;27371;42.686;23.362;2022-10-28T09:48:35;10.13;;;5.03;;
41687;SDS011;27371;42.686;23.362;2022-10-28T09:51:17;18.00;;;6.57;;
41687;SDS011;27371;42.686;23.362;2022-10-28T09:53:51;11.13;;;6.20;;
41687;SDS011;27371;42.686;23.362;2022-10-28T09:56:20;14.05;;;5.30;;
41687;SDS011;27371;42.686;23.362;2022-10-28T09:58:46;11.80;;;5.82;;
41687;SDS011;27371;42.686;23.362;2022-10-28T10:01:12;16.80;;;7.10;;
41687;SDS011;27371;42.686;23.362;2022-10-28T10:03:39;12.05;;;5.63;;
41687;SDS011;27371;42.686;23.362;2022-10-28T10:06:13;9.30;;;4.75;;
41687;SDS011;27371;42.686;23.362;2022-10-28T10:08:58;16.23;;;6.00;;
41687;SDS011;27371;42.686;23.362;2022-10-28T10:17:36;10.02;;;4.68;;
41687;SDS011;27371;42.686;23.362;2022-10-28T10:20:12;10.68;;;4.20;;
41687;SDS011;27371;42.686;23.362;2022-10-28T10:28:16;10.02;;;3.72;;
41687;SDS011;27371;42.686;23.362;2022-10-28T10:30:48;13.68;;;5.05;;
41687;SDS011;27371;42.686;23.362;2022-10-28T10:33:19;12.10;;;4.30;;
41687;SDS011;27371;42.686;23.362;2022-10-28T10:38:24;15.15;;;5.07;;
41687;SDS011;27371;42.686;23.362;2022-10-28T10:40:51;16.05;;;4.53;;
41687;SDS011;27371;42.686;23.362;2022-10-28T10:48:36;4.80;;;2.35;;
41687;SDS011;27371;42.686;23.362;2022-10-28T10:51:08;7.30;;;2.95;;
41687;SDS011;27371;42.686;23.362;2022-10-28T10:53:36;9.25;;;2.80;;
41687;SDS011;27371;42.686;23.362;2022-10-28T10:56:07;8.68;;;3.30;;
41687;SDS011;27371;42.686;23.362;2022-10-28T10:58:39;7.20;;;3.00;;
41687;SDS011;27371;42.686;23.362;2022-10-28T11:01:25;7.53;;;2.92;;
41687;SDS011;27371;42.686;23.362;2022-10-28T11:04:00;8.55;;;5.13;;
41687;SDS011;27371;42.686;23.362;2022-10-28T11:06:40;6.30;;;3.05;;
41687;SDS011;27371;42.686;23.362;2022-10-28T11:09:19;4.70;;;3.10;;
41687;SDS011;27371;42.686;23.362;2022-10-28T11:11:57;6.30;;;3.70;;
41687;SDS011;27371;42.686;23.362;2022-10-28T11:14:24;5.72;;;2.75;;
41687;SDS011;27371;42.686;23.362;2022-10-28T11:16:56;5.40;;;2.30;;
41687;SDS011;27371;42.686;23.362;2022-10-28T11:30:12;3.95;;;2.15;;
41687;SDS011;27371;42.686;23.362;2022-10-28T11:32:48;3.33;;;1.67;;
41687;SDS011;27371;42.686;23.362;2022-10-28T11:37:47;6.25;;;2.22;;
41687;SDS011;27371;42.686;23.362;2022-10-28T11:43:06;9.20;;;2.80;;
41687;SDS011;27371;42.686;23.362;2022-10-28T12:15:36;6.88;;;2.40;;
41687;SDS011;27371;42.686;23.362;2022-10-28T12:18:27;3.97;;;2.10;;
41687;SDS011;27371;42.686;23.362;2022-10-28T12:24:04;3.83;;;2.05;;
41687;SDS011;27371;42.686;23.362;2022-10-28T12:26:39;5.05;;;2.20;;
41687;SDS011;27371;42.686;23.362;2022-10-28T12:29:10;6.43;;;2.22;;
41687;SDS011;27371;42.686;23.362;2022-10-28T12:32:17;7.15;;;2.17;;
41687;SDS011;27371;42.686;23.362;2022-10-28T12:34:38;5.88;;;2.20;;
41687;SDS011;27371;42.686;23.362;2022-10-28T12:37:17;3.50;;;2.25;;
41687;SDS011;27371;42.686;23.362;2022-10-28T12:39:47;5.68;;;2.22;;
41687;SDS011;27371;42.686;23.362;2022-10-28T12:42:23;5.13;;;2.25;;
41687;SDS011;27371;42.686;23.362;2022-10-28T12:44:55;6.13;;;2.83;;
41687;SDS011;27371;42.686;23.362;2022-10-28T12:50:19;4.60;;;2.45;;
41687;SDS011;27371;42.686;23.362;2022-10-28T12:53:15;5.00;;;2.13;;
41687;SDS011;27371;42.686;23.362;2022-10-28T12:55:49;6.35;;;1.90;;
41687;SDS011;27371;42.686;23.362;2022-10-28T12:58:22;5.72;;;2.28;;
41687;SDS011;27371;42.686;23.362;2022-10-28T13:00:56;6.25;;;1.63;;
41687;SDS011;27371;42.686;23.362;2022-10-28T13:03:26;2.53;;;1.40;;
41687;SDS011;27371;42.686;23.362;2022-10-28T13:06:00;8.68;;;1.95;;
41687;SDS011;27371;42.686;23.362;2022-10-28T13:16:59;10.45;;;2.08;;
41687;SDS011;27371;42.686;23.362;2022-10-28T13:27:11;5.90;;;2.00;;
41687;SDS011;27371;42.686;23.362;2022-10-28T13:29:38;7.68;;;1.65;;
41687;SDS011;27371;42.686;23.362;2022-10-28T13:32:22;5.10;;;1.63;;
41687;SDS011;27371;42.686;23.362;2022-10-28T13:37:18;4.65;;;2.00;;
41687;SDS011;27371;42.686;23.362;2022-10-28T13:39:46;3.58;;;2.00;;
41687;SDS011;27371;42.686;23.362;2022-10-28T13:55:15;3.65;;;1.40;;
41687;SDS011;27371;42.686;23.362;2022-10-28T13:57:46;2.65;;;1.70;;
41687;SDS011;27371;42.686;23.362;2022-10-28T14:05:13;3.42;;;1.70;;
41687;SDS011;27371;42.686;23.362;2022-10-28T14:07:52;4.05;;;1.55;;
41687;SDS011;27371;42.686;23.362;2022-10-28T14:10:30;5.78;;;1.73;;
41687;SDS011;27371;42.686;23.362;2022-10-28T14:13:17;6.18;;;2.05;;
41687;SDS011;27371;42.686;23.362;2022-10-28T14:15:45;3.05;;;1.80;;
41687;SDS011;27371;42.686;23.362;2022-10-28T14:20:39;5.45;;;1.80;;
41687;SDS011;27371;42.686;23.362;2022-10-28T14:42:11;4.75;;;2.00;;
41687;SDS011;27371;42.686;23.362;2022-10-28T14:45:01;5.28;;;1.80;;
41687;SDS011;27371;42.686;23.362;2022-10-28T14:47:52;3.20;;;1.73;;
41687;SDS011;27371;42.686;23.362;2022-10-28T14:50:21;5.90;;;1.63;;
41687;SDS011;27371;42.686;23.362;2022-10-28T14:52:50;6.22;;;2.10;;
41687;SDS011;27371;42.686;23.362;2022-10-28T14:55:29;4.95;;;1.98;;
41687;SDS011;27371;42.686;23.362;2022-10-28T15:00:48;2.40;;;1.60;;
41687;SDS011;27371;42.686;23.362;2022-10-28T15:03:37;3.85;;;1.50;;
41687;SDS011;27371;42.686;23.362;2022-10-28T15:08:54;3.78;;;1.60;;
41687;SDS011;27371;42.686;23.362;2022-10-28T15:11:20;4.38;;;1.83;;
41687;SDS011;27371;42.686;23.362;2022-10-28T15:13:50;6.57;;;2.22;;
41687;SDS011;27371;42.686;23.362;2022-10-28T15:16:20;5.18;;;1.98;;
41687;SDS011;27371;42.686;23.362;2022-10-28T15:18:50;11.40;;;1.88;;
41687;SDS011;27371;42.686;23.362;2022-10-28T15:21:18;7.80;;;2.67;;
41687;SDS011;27371;42.686;23.362;2022-10-28T15:24:01;6.75;;;2.00;;
41687;SDS011;27371;42.686;23.362;2022-10-28T15:26:28;6.50;;;1.95;;
41687;SDS011;27371;42.686;23.362;2022-10-28T15:28:54;8.70;;;3.13;;
41687;SDS011;27371;42.686;23.362;2022-10-28T15:31:20;7.38;;;2.88;;
41687;SDS011;27371;42.686;23.362;2022-10-28T15:33:45;7.55;;;3.15;;
41687;SDS011;27371;42.686;23.362;2022-10-28T15:38:40;19.63;;;9.95;;
41687;SDS011;27371;42.686;23.362;2022-10-28T15:43:54;24.05;;;11.13;;
41687;SDS011;27371;42.686;23.362;2022-10-28T15:46:22;19.35;;;8.27;;
41687;SDS011;27371;42.686;23.362;2022-10-28T15:48:52;14.93;;;6.82;;
41687;SDS011;27371;42.686;23.362;2022-10-28T15:51:19;12.70;;;4.32;;
41687;SDS011;27371;42.686;23.362;2022-10-28T15:53:48;17.05;;;4.28;;
41687;SDS011;27371;42.686;23.362;2022-10-28T15:56:20;15.35;;;4.20;;
41687;SDS011;27371;42.686;23.362;2022-10-28T16:04:04;15.50;;;6.55;;
41687;SDS011;27371;42.686;23.362;2022-10-28T16:06:50;19.70;;;6.25;;
41687;SDS011;27371;42.686;23.362;2022-10-28T16:09:31;13.32;;;4.97;;
41687;SDS011;27371;42.686;23.362;2022-10-28T16:12:17;19.63;;;5.28;;
41687;SDS011;27371;42.686;23.362;2022-10-28T16:14:52;20.67;;;6.07;;
41687;SDS011;27371;42.686;23.362;2022-10-28T16:17:22;17.70;;;8.25;;
41687;SDS011;27371;42.686;23.362;2022-10-28T16:20:03;16.38;;;8.60;;
41687;SDS011;27371;42.686;23.362;2022-10-28T16:22:45;21.10;;;8.48;;
41687;SDS011;27371;42.686;23.362;2022-10-28T16:25:15;22.73;;;9.27;;
41687;SDS011;27371;42.686;23.362;2022-10-28T16:27:44;18.42;;;7.47;;
41687;SDS011;27371;42.686;23.362;2022-10-28T16:30:09;21.70;;;6.97;;
41687;SDS011;27371;42.686;23.362;2022-10-28T16:32:36;19.65;;;7.65;;
41687;SDS011;27371;42.686;23.362;2022-10-28T16:35:08;20.67;;;8.93;;
41687;SDS011;27371;42.686;23.362;2022-10-28T16:37:42;16.52;;;8.65;;
41687;SDS011;27371;42.686;23.362;2022-10-28T16:40:08;12.40;;;6.40;;
41687;SDS011;27371;42.686;23.362;2022-10-28T16:42:35;10.63;;;4.30;;
41687;SDS011;27371;42.686;23.362;2022-10-28T16:45:02;11.85;;;7.18;;
41687;SDS011;27371;42.686;23.362;2022-10-28T16:47:28;10.77;;;2.90;;
41687;SDS011;27371;42.686;23.362;2022-10-28T16:49:54;8.20;;;2.80;;
41687;SDS011;27371;42.686;23.362;2022-10-28T16:52:20;13.70;;;5.05;;
41687;SDS011;27371;42.686;23.362;2022-10-28T16:54:48;9.27;;;3.28;;
41687;SDS011;27371;42.686;23.362;2022-10-28T16:57:15;7.68;;;3.08;;
41687;SDS011;27371;42.686;23.362;2022-10-28T16:59:41;19.75;;;8.40;;
41687;SDS011;27371;42.686;23.362;2022-10-28T17:02:18;24.42;;;8.57;;
41687;SDS011;27371;42.686;23.362;2022-10-28T17:04:49;22.88;;;6.80;;
41687;SDS011;27371;42.686;23.362;2022-10-28T17:07:15;24.27;;;7.22;;
41687;SDS011;27371;42.686;23.362;2022-10-28T17:09:42;16.23;;;7.05;;
41687;SDS011;27371;42.686;23.362;2022-10-28T17:12:15;28.50;;;9.15;;
41687;SDS011;27371;42.686;23.362;2022-10-28T17:14:42;22.33;;;7.95;;
41687;SDS011;27371;42.686;23.362;2022-10-28T17:17:08;18.15;;;8.18;;
41687;SDS011;27371;42.686;23.362;2022-10-28T17:19:34;18.38;;;7.07;;
41687;SDS011;27371;42.686;23.362;2022-10-28T17:22:04;19.52;;;7.00;;
41687;SDS011;27371;42.686;23.362;2022-10-28T17:24:30;21.45;;;8.50;;
41687;SDS011;27371;42.686;23.362;2022-10-28T17:26:56;22.73;;;8.52;;
41687;SDS011;27371;42.686;23.362;2022-10-28T17:29:21;19.58;;;8.93;;
41687;SDS011;27371;42.686;23.362;2022-10-28T17:31:47;19.25;;;8.30;;
41687;SDS011;27371;42.686;23.362;2022-10-28T17:34:12;17.27;;;7.63;;
41687;SDS011;27371;42.686;23.362;2022-10-28T17:36:38;15.90;;;6.63;;
41687;SDS011;27371;42.686;23.362;2022-10-28T17:39:04;21.63;;;7.47;;
41687;SDS011;27371;42.686;23.362;2022-10-28T17:41:29;22.30;;;8.18;;
41687;SDS011;27371;42.686;23.362;2022-10-28T17:43:55;21.15;;;10.30;;
41687;SDS011;27371;42.686;23.362;2022-10-28T17:46:20;25.67;;;9.18;;
41687;SDS011;27371;42.686;23.362;2022-10-28T17:48:46;25.50;;;8.50;;
41687;SDS011;27371;42.686;23.362;2022-10-28T17:51:12;21.13;;;8.93;;
41687;SDS011;27371;42.686;23.362;2022-10-28T17:53:37;29.67;;;9.13;;
41687;SDS011;27371;42.686;23.362;2022-10-28T17:56:04;22.80;;;9.75;;
41687;SDS011;27371;42.686;23.362;2022-10-28T17:58:31;21.70;;;9.07;;
41687;SDS011;27371;42.686;23.362;2022-10-28T18:01:04;18.20;;;7.60;;
41687;SDS011;27371;42.686;23.362;2022-10-28T18:03:31;18.90;;;7.43;;
41687;SDS011;27371;42.686;23.362;2022-10-28T18:06:03;20.63;;;7.95;;
41687;SDS011;27371;42.686;23.362;2022-10-28T18:08:33;22.33;;;8.55;;
41687;SDS011;27371;42.686;23.362;2022-10-28T18:11:01;20.00;;;9.63;;
41687;SDS011;27371;42.686;23.362;2022-10-28T18:13:28;26.98;;;10.57;;
41687;SDS011;27371;42.686;23.362;2022-10-28T18:15:55;20.98;;;9.57;;
41687;SDS011;27371;42.686;23.362;2022-10-28T18:18:24;22.13;;;9.38;;
41687;SDS011;27371;42.686;23.362;2022-10-28T18:20:53;20.33;;;9.57;;
41687;SDS011;27371;42.686;23.362;2022-10-28T18:23:20;27.85;;;10.88;;
41687;SDS011;27371;42.686;23.362;2022-10-28T18:25:46;25.40;;;11.02;;
41687;SDS011;27371;42.686;23.362;2022-10-28T18:28:21;22.95;;;9.50;;
41687;SDS011;27371;42.686;23.362;2022-10-28T18:30:47;18.88;;;9.52;;
41687;SDS011;27371;42.686;23.362;2022-10-28T18:33:12;21.45;;;10.85;;
41687;SDS011;27371;42.686;23.362;2022-10-28T18:35:42;27.80;;;10.70;;